Time;durP1;ratioP1;P1;durP2;ratioP2;P2;SDS_P1;SDS_P2;PMS_P1;PMS_P2;Temp;Humidity;BMP_temperature;BMP_pressure;BME280_temperature;BME280_humidity;BME280_pressure;Samples;Min_cycle;Max_cycle;Signal;HPM_P1;HPM_P2
2023/05/04 00:01:10;;;;;;;10.00;6.57;;;4.10;1.00;;;;;;5073573;28;20203;-62
2023/05/04 00:03:38;;;;;;;9.00;5.93;;;4.10;1.00;;;;;;5057903;28;20184;-65
2023/05/04 00:06:04;;;;;;;8.27;6.10;;;4.20;1.00;;;;;;5090917;28;20402;-65
2023/05/04 00:08:30;;;;;;;8.20;6.20;;;4.10;1.00;;;;;;5074249;28;20415;-63
2023/05/04 00:10:56;;;;;;;10.63;6.47;;;4.20;1.00;;;;;;5053453;28;20223;-63
2023/05/04 00:13:21;;;;;;;9.77;6.20;;;4.20;1.00;;;;;;5054153;28;20429;-65
2023/05/04 00:15:47;;;;;;;8.40;7.20;;;4.20;1.00;;;;;;5091571;28;20700;-62
2023/05/04 00:18:13;;;;;;;6.53;5.90;;;4.20;1.00;;;;;;5094562;28;20699;-65
2023/05/04 00:20:38;;;;;;;11.27;6.13;;;4.10;1.00;;;;;;5075450;28;20230;-62
2023/05/04 00:23:04;;;;;;;8.10;6.00;;;4.10;1.00;;;;;;5075043;28;20259;-65
2023/05/04 00:25:30;;;;;;;8.47;6.77;;;4.10;1.00;;;;;;5074515;28;20179;-63
2023/05/04 00:27:56;;;;;;;6.63;6.03;;;4.10;1.00;;;;;;5074328;28;20198;-65
2023/05/04 00:30:22;;;;;;;8.77;5.90;;;4.00;1.00;;;;;;5086416;28;20423;-61
2023/05/04 00:32:47;;;;;;;6.53;5.93;;;4.00;1.00;;;;;;5094498;28;20700;-62
2023/05/04 00:35:13;;;;;;;7.47;6.00;;;4.00;1.00;;;;;;5081117;28;20440;-65
2023/05/04 00:37:39;;;;;;;11.33;7.60;;;3.90;1.00;;;;;;5073901;28;20243;-62
2023/05/04 00:40:05;;;;;;;5.97;5.37;;;3.90;1.00;;;;;;5076233;28;20170;-63
2023/05/04 00:42:31;;;;;;;9.00;6.60;;;3.90;1.00;;;;;;5074015;28;20219;-64
2023/05/04 00:44:56;;;;;;;6.73;5.20;;;3.80;1.00;;;;;;5067459;28;20452;-65
2023/05/04 00:47:23;;;;;;;7.30;6.53;;;3.80;1.00;;;;;;5093262;28;20182;-61
2023/05/04 00:49:50;;;;;;;8.70;5.60;;;3.80;1.00;;;;;;5081791;28;20183;-62
2023/05/04 00:52:16;;;;;;;6.20;5.63;;;3.70;1.00;;;;;;5073200;28;20419;-65
2023/05/04 00:54:45;;;;;;;8.47;5.83;;;3.80;1.00;;;;;;5058369;28;20504;-62
2023/05/04 00:57:11;;;;;;;7.37;6.57;;;3.80;1.00;;;;;;5073680;28;20459;-65
2023/05/04 00:59:38;;;;;;;8.20;6.47;;;3.70;1.00;;;;;;5084693;28;20418;-66
2023/05/04 01:02:04;;;;;;;10.70;6.10;;;3.80;1.00;;;;;;5090236;28;20500;-62
2023/05/04 01:04:30;;;;;;;7.00;6.10;;;3.80;1.00;;;;;;5073675;28;20500;-62
2023/05/04 01:07:14;;;;;;;8.57;7.73;;;3.80;1.00;;;;;;5072808;28;20397;-65
2023/05/04 01:09:52;;;;;;;9.17;5.60;;;3.70;1.00;;;;;;5083807;28;20420;-65
2023/05/04 01:12:28;;;;;;;8.53;6.03;;;3.70;1.00;;;;;;5092865;28;20472;-62
2023/05/04 01:14:55;;;;;;;7.87;6.47;;;3.70;1.00;;;;;;5078946;28;20420;-65
2023/05/04 01:17:21;;;;;;;7.23;5.83;;;3.70;1.00;;;;;;5066892;28;20453;-65
2023/05/04 01:19:47;;;;;;;5.73;5.23;;;3.60;1.00;;;;;;5062770;28;20828;-64
2023/05/04 01:22:12;;;;;;;6.90;5.17;;;3.60;1.00;;;;;;5072795;28;20178;-62
2023/05/04 01:24:38;;;;;;;8.27;6.60;;;3.50;1.00;;;;;;5072246;28;20175;-62
2023/05/04 01:27:08;;;;;;;8.00;6.33;;;3.40;1.00;;;;;;5073310;28;20166;-63
2023/05/04 01:29:43;;;;;;;10.40;5.50;;;3.40;1.00;;;;;;5073052;28;20504;-62
2023/05/04 01:32:11;;;;;;;8.47;6.53;;;3.40;1.00;;;;;;5071655;28;20447;-65
2023/05/04 01:34:39;;;;;;;11.80;6.00;;;3.30;1.00;;;;;;5081166;28;20419;-62
2023/05/04 01:37:05;;;;;;;6.33;5.83;;;3.30;1.00;;;;;;5093411;28;20451;-63
2023/05/04 01:39:31;;;;;;;7.90;5.87;;;3.30;1.00;;;;;;5085701;28;20419;-62
2023/05/04 01:41:57;;;;;;;7.43;5.63;;;3.30;1.00;;;;;;5071647;28;20419;-64
2023/05/04 01:44:23;;;;;;;6.83;6.00;;;3.20;1.00;;;;;;5073941;28;20228;-64
2023/05/04 01:46:49;;;;;;;5.53;5.13;;;3.30;1.00;;;;;;5072590;28;20461;-65
2023/05/04 01:49:14;;;;;;;13.43;6.03;;;3.30;1.00;;;;;;5073253;28;20175;-65
2023/05/04 01:51:40;;;;;;;6.37;5.70;;;3.20;1.00;;;;;;5072296;28;20175;-61
2023/05/04 01:54:06;;;;;;;7.07;5.40;;;3.20;1.00;;;;;;5088321;28;20250;-65
2023/05/04 01:56:31;;;;;;;6.20;5.80;;;3.20;1.00;;;;;;5093176;28;20202;-65
2023/05/04 01:58:57;;;;;;;5.43;4.93;;;3.20;1.00;;;;;;5077900;28;20300;-65
2023/05/04 02:01:23;;;;;;;7.20;6.47;;;3.20;1.00;;;;;;5071226;28;20174;-65
2023/05/04 02:03:48;;;;;;;5.50;5.00;;;3.20;1.00;;;;;;5075792;28;20198;-65
2023/05/04 02:06:14;;;;;;;7.57;6.03;;;3.10;1.00;;;;;;5073177;28;20193;-65
2023/05/04 02:08:40;;;;;;;7.53;6.00;;;3.10;1.00;;;;;;5086761;28;20256;-62
2023/05/04 02:11:06;;;;;;;6.10;5.50;;;3.10;1.00;;;;;;5092905;28;20170;-62
2023/05/04 02:13:31;;;;;;;6.07;5.43;;;3.10;1.00;;;;;;5056636;28;20523;-65
2023/05/04 02:15:57;;;;;;;8.43;6.60;;;3.10;1.00;;;;;;5052774;28;20156;-64
2023/05/04 02:18:23;;;;;;;6.60;5.97;;;3.10;1.00;;;;;;5076952;28;20233;-65
2023/05/04 02:20:48;;;;;;;5.87;5.37;;;3.00;1.00;;;;;;5092716;28;20173;-62
2023/05/04 02:23:14;;;;;;;6.43;5.83;;;3.00;1.00;;;;;;5082800;28;20190;-65
2023/05/04 02:25:42;;;;;;;9.40;6.23;;;3.00;1.00;;;;;;5076715;28;20169;-65
2023/05/04 02:28:08;;;;;;;8.90;6.17;;;3.00;1.00;;;;;;5078877;28;20213;-62
2023/05/04 02:30:34;;;;;;;8.07;6.00;;;3.00;1.00;;;;;;5075442;28;20818;-62
2023/05/04 02:33:00;;;;;;;9.60;6.60;;;3.00;1.00;;;;;;5089547;28;20236;-61
2023/05/04 02:35:25;;;;;;;8.27;7.00;;;2.90;1.00;;;;;;5095657;28;20892;-62
2023/05/04 02:37:51;;;;;;;9.33;7.13;;;3.00;1.00;;;;;;5066160;28;20206;-63
2023/05/04 02:40:17;;;;;;;7.90;6.30;;;2.90;1.00;;;;;;5057027;28;20178;-65
2023/05/04 02:42:42;;;;;;;6.80;5.77;;;2.90;1.00;;;;;;5075925;28;20559;-62
2023/05/04 02:45:08;;;;;;;6.67;5.97;;;2.90;1.00;;;;;;5076167;28;20523;-65
2023/05/04 02:47:34;;;;;;;6.60;5.90;;;2.90;1.00;;;;;;5084318;28;20182;-62
2023/05/04 02:50:00;;;;;;;9.70;6.80;;;2.80;1.00;;;;;;5096026;28;20392;-65
2023/05/04 02:52:25;;;;;;;7.97;7.20;;;2.80;1.00;;;;;;5093283;28;20584;-65
2023/05/04 02:54:51;;;;;;;9.07;7.10;;;2.80;1.00;;;;;;5086098;28;20176;-62
2023/05/04 02:57:17;;;;;;;11.23;6.83;;;2.80;1.00;;;;;;5076034;28;20190;-65
2023/05/04 02:59:42;;;;;;;8.30;7.50;;;2.80;1.00;;;;;;5075908;28;20662;-67
2023/05/04 03:02:08;;;;;;;14.03;7.10;;;2.80;1.00;;;;;;5059947;28;20191;-61
2023/05/04 03:04:33;;;;;;;11.60;8.17;;;2.80;1.00;;;;;;5075860;28;20174;-61
2023/05/04 03:06:59;;;;;;;16.03;7.90;;;2.80;1.00;;;;;;5080454;28;20211;-61
2023/05/04 03:09:25;;;;;;;12.20;7.23;;;2.80;1.00;;;;;;5087068;28;20162;-64
2023/05/04 03:11:50;;;;;;;9.13;7.07;;;2.80;1.00;;;;;;5075428;28;20174;-62
2023/05/04 03:14:16;;;;;;;8.43;7.00;;;2.80;1.00;;;;;;5075175;28;20190;-65
2023/05/04 03:16:42;;;;;;;12.80;7.30;;;2.70;1.00;;;;;;5078152;28;20195;-62
2023/05/04 03:19:07;;;;;;;8.97;7.30;;;2.70;1.00;;;;;;5075333;28;20166;-65
2023/05/04 03:21:33;;;;;;;12.83;7.50;;;2.70;1.00;;;;;;5077944;28;20227;-61
2023/05/04 03:23:59;;;;;;;10.23;7.10;;;2.70;1.00;;;;;;5077698;28;20562;-61
2023/05/04 03:26:24;;;;;;;9.27;6.27;;;2.60;1.00;;;;;;5075253;28;20200;-62
2023/05/04 03:28:50;;;;;;;9.83;7.20;;;2.60;1.00;;;;;;5095129;28;20197;-63
2023/05/04 03:31:16;;;;;;;8.33;7.13;;;2.50;1.00;;;;;;5094635;28;20509;-61
2023/05/04 03:33:41;;;;;;;10.13;6.10;;;2.50;1.00;;;;;;5075439;28;20194;-62
2023/05/04 03:36:08;;;;;;;9.67;6.93;;;2.60;1.00;;;;;;5074624;28;20591;-62
2023/05/04 03:38:33;;;;;;;7.27;6.47;;;2.50;1.00;;;;;;5076152;28;20181;-65
2023/05/04 03:40:59;;;;;;;14.40;7.87;;;2.50;1.00;;;;;;5074518;28;20966;-62
2023/05/04 03:43:25;;;;;;;9.53;7.27;;;2.50;1.00;;;;;;5075049;28;20485;-62
2023/05/04 03:45:51;;;;;;;9.20;7.40;;;2.60;1.00;;;;;;5074196;28;20157;-65
2023/05/04 03:48:17;;;;;;;11.20;8.23;;;2.60;1.00;;;;;;5089598;28;20458;-65
2023/05/04 03:50:42;;;;;;;10.37;8.33;;;2.60;1.00;;;;;;5085859;28;20733;-62
2023/05/04 03:53:08;;;;;;;10.43;7.37;;;2.70;1.00;;;;;;5075143;28;20212;-62
2023/05/04 03:55:33;;;;;;;8.30;7.10;;;2.60;1.00;;;;;;5074907;28;20169;-65
2023/05/04 03:57:59;;;;;;;11.60;7.23;;;2.60;1.00;;;;;;5085888;28;20578;-65
2023/05/04 04:00:25;;;;;;;12.90;6.90;;;2.70;1.00;;;;;;5094009;28;20162;-63
2023/05/04 04:02:51;;;;;;;9.30;7.50;;;2.70;1.00;;;;;;5084813;28;20225;-62
2023/05/04 04:05:16;;;;;;;9.60;7.10;;;2.80;1.00;;;;;;5072818;28;20179;-63
2023/05/04 04:07:42;;;;;;;8.87;7.37;;;2.80;1.00;;;;;;5074613;28;20482;-63
2023/05/04 04:10:08;;;;;;;13.77;8.13;;;2.90;1.00;;;;;;5073592;28;20228;-63
2023/05/04 04:12:34;;;;;;;9.57;7.30;;;2.90;1.00;;;;;;5071504;28;20228;-62
2023/05/04 04:15:00;;;;;;;10.63;7.20;;;3.00;1.00;;;;;;5094656;28;20493;-65
2023/05/04 04:17:25;;;;;;;10.10;7.00;;;3.00;1.00;;;;;;5080337;28;20232;-62
2023/05/04 04:19:51;;;;;;;8.90;6.80;;;3.10;1.00;;;;;;5072997;28;20189;-65
2023/05/04 04:22:17;;;;;;;10.50;7.03;;;3.10;1.00;;;;;;5074510;28;20187;-66
2023/05/04 04:24:43;;;;;;;9.07;7.20;;;3.10;1.00;;;;;;5073949;28;20186;-65
2023/05/04 04:27:09;;;;;;;12.50;8.87;;;3.20;1.00;;;;;;5074911;28;20527;-66
2023/05/04 04:29:34;;;;;;;14.73;6.90;;;3.30;1.00;;;;;;5074015;28;20416;-65
2023/05/04 04:32:01;;;;;;;7.40;5.70;;;3.40;1.00;;;;;;5067569;28;20176;-65
2023/05/04 04:34:27;;;;;;;11.27;6.43;;;3.40;1.00;;;;;;5078825;28;20197;-62
2023/05/04 04:36:52;;;;;;;10.23;7.90;;;3.40;1.00;;;;;;5075015;28;20544;-66
2023/05/04 04:39:18;;;;;;;9.30;7.60;;;3.50;1.00;;;;;;5073936;28;20166;-66
2023/05/04 04:41:44;;;;;;;8.80;7.00;;;3.50;1.00;;;;;;5074055;28;20173;-66
2023/05/04 04:44:10;;;;;;;7.67;6.80;;;3.50;1.00;;;;;;5073335;28;20184;-62
2023/05/04 04:46:36;;;;;;;8.90;7.27;;;3.50;1.00;;;;;;5073193;28;20178;-62
2023/05/04 04:49:02;;;;;;;8.17;7.20;;;3.50;1.00;;;;;;5074086;28;20428;-66
2023/05/04 04:51:28;;;;;;;8.23;7.33;;;3.50;1.00;;;;;;5073085;28;20417;-66
2023/05/04 04:53:53;;;;;;;9.93;7.60;;;3.50;1.00;;;;;;5073396;28;20542;-65
2023/05/04 04:56:20;;;;;;;9.77;7.67;;;3.50;1.00;;;;;;5059357;28;20991;-66
2023/05/04 04:58:46;;;;;;;8.73;7.10;;;3.50;1.00;;;;;;5094077;28;20247;-65
2023/05/04 05:01:16;;;;;;;11.40;7.33;;;3.50;1.00;;;;;;5086694;28;20583;-65
2023/05/04 05:03:45;;;;;;;11.20;7.60;;;3.60;1.00;;;;;;5073644;28;20445;-65
2023/05/04 05:06:12;;;;;;;8.80;7.80;;;3.70;1.00;;;;;;5053487;28;20409;-66
2023/05/04 05:08:38;;;;;;;9.33;8.03;;;3.70;3.40;;;;;;5053612;28;20802;-65
2023/05/04 05:11:05;;;;;;;9.97;7.60;;;3.80;7.30;;;;;;5082385;28;20511;-66
2023/05/04 05:13:31;;;;;;;10.47;8.30;;;3.80;11.50;;;;;;5093612;28;20875;-65
2023/05/04 05:15:56;;;;;;;11.50;8.03;;;3.90;17.80;;;;;;5074881;28;20507;-65
2023/05/04 05:18:23;;;;;;;14.70;8.13;;;3.90;24.90;;;;;;5073861;28;20689;-62
2023/05/04 05:20:49;;;;;;;15.40;7.90;;;4.00;29.20;;;;;;5087515;28;20173;-65
2023/05/04 05:23:15;;;;;;;11.67;8.17;;;4.10;36.40;;;;;;5093450;28;20463;-65
2023/05/04 05:25:42;;;;;;;11.17;8.00;;;4.20;46.70;;;;;;5091658;28;20693;-65
2023/05/04 05:28:08;;;;;;;11.17;8.20;;;4.30;60.30;;;;;;5093369;28;20395;-66
2023/05/04 05:30:34;;;;;;;12.27;8.10;;;4.40;71.10;;;;;;5075179;28;20486;-65
2023/05/04 05:33:00;;;;;;;12.30;8.73;;;4.50;79.50;;;;;;5073796;28;20444;-66
2023/05/04 05:35:25;;;;;;;13.33;9.70;;;4.60;90.30;;;;;;5073433;28;20170;-62
2023/05/04 05:37:51;;;;;;;11.83;8.80;;;4.70;90.60;;;;;;5083092;28;20568;-67
2023/05/04 05:40:17;;;;;;;13.53;8.17;;;4.80;90.60;;;;;;5091894;28;20634;-65
2023/05/04 05:42:44;;;;;;;10.70;8.13;;;4.90;90.60;;;;;;5083205;28;20277;-69
2023/05/04 05:45:10;;;;;;;13.13;8.73;;;5.00;90.70;;;;;;5073929;28;20415;-65
2023/05/04 05:47:36;;;;;;;16.33;9.20;;;5.00;91.80;;;;;;5073307;28;20777;-65
2023/05/04 05:50:05;;;;;;;11.83;8.73;;;5.10;96.40;;;;;;5070129;28;20435;-66
2023/05/04 05:52:31;;;;;;;16.67;9.17;;;5.20;99.90;;;;;;5072268;28;20543;-67
2023/05/04 05:54:56;;;;;;;11.63;8.87;;;5.30;99.90;;;;;;5054217;28;20858;-68
2023/05/04 05:57:22;;;;;;;18.67;10.10;;;5.40;99.90;;;;;;5074943;28;20213;-65
2023/05/04 05:59:48;;;;;;;11.63;8.87;;;5.50;99.90;;;;;;5076439;28;20171;-68
2023/05/04 06:02:14;;;;;;;12.63;9.83;;;5.60;99.90;;;;;;5066399;28;20198;-69
2023/05/04 06:04:40;;;;;;;13.60;9.60;;;5.70;99.90;;;;;;5079024;28;20158;-65
2023/05/04 06:07:06;;;;;;;12.17;8.57;;;5.80;99.90;;;;;;5077035;28;20171;-69
2023/05/04 06:09:32;;;;;;;17.40;8.33;;;5.90;99.90;;;;;;5076608;28;20491;-69
2023/05/04 06:11:58;;;;;;;15.03;9.00;;;6.00;99.90;;;;;;5075763;28;20178;-65
2023/05/04 06:14:24;;;;;;;12.43;8.10;;;6.10;99.90;;;;;;5076131;28;20485;-68
2023/05/04 06:16:49;;;;;;;9.53;7.23;;;6.20;99.90;;;;;;5082629;28;20198;-69
2023/05/04 06:19:15;;;;;;;9.90;5.57;;;6.30;99.90;;;;;;5076860;28;20170;-68
2023/05/04 06:21:41;;;;;;;10.67;5.90;;;6.40;99.90;;;;;;5076038;28;20221;-65
2023/05/04 06:24:06;;;;;;;10.40;5.60;;;6.70;99.90;;;;;;5076346;28;20273;-66
2023/05/04 06:26:32;;;;;;;8.93;4.90;;;6.90;99.90;;;;;;5059326;28;20182;-69
2023/05/04 06:28:58;;;;;;;8.73;4.70;;;7.00;99.90;;;;;;5076574;28;20173;-69
2023/05/04 06:31:23;;;;;;;14.53;4.73;;;7.20;99.90;;;;;;5093735;28;20181;-68
2023/05/04 06:33:49;;;;;;;13.30;6.70;;;7.40;99.90;;;;;;5096886;28;20604;-65
2023/05/04 06:36:15;;;;;;;12.73;5.97;;;7.70;99.90;;;;;;5076440;28;20660;-67
2023/05/04 06:38:44;;;;;;;10.00;7.90;;;7.80;99.90;;;;;;5059319;28;20917;-69
2023/05/04 06:41:09;;;;;;;14.13;6.27;;;7.90;99.90;;;;;;5075136;28;20933;-70
2023/05/04 06:43:35;;;;;;;10.13;6.93;;;8.10;99.90;;;;;;5076299;28;20417;-70
2023/05/04 06:46:02;;;;;;;7.83;5.60;;;8.10;99.90;;;;;;5094749;28;20257;-65
2023/05/04 06:48:29;;;;;;;11.87;5.70;;;8.30;99.90;;;;;;5096421;28;20167;-66
2023/05/04 06:50:56;;;;;;;9.50;5.67;;;8.40;99.90;;;;;;5095375;28;20468;-69
2023/05/04 06:53:22;;;;;;;8.50;6.07;;;8.50;99.90;;;;;;5080266;28;20482;-69
2023/05/04 06:55:47;;;;;;;10.30;5.60;;;8.70;99.90;;;;;;5075883;28;20382;-70
2023/05/04 06:58:16;;;;;;;23.03;5.47;;;8.80;99.90;;;;;;5075032;28;20472;-69
2023/05/04 07:00:42;;;;;;;11.83;5.63;;;9.00;99.90;;;;;;5075017;28;20193;-69
2023/05/04 07:03:07;;;;;;;8.47;5.70;;;9.10;99.90;;;;;;5076035;28;20438;-66
2023/05/04 07:05:35;;;;;;;7.73;5.60;;;9.10;99.90;;;;;;5075797;28;20165;-66
2023/05/04 07:08:02;;;;;;;11.23;4.87;;;9.20;99.90;;;;;;5075965;28;20488;-70
2023/05/04 07:10:27;;;;;;;9.17;5.07;;;9.30;99.90;;;;;;5073652;28;20419;-66
2023/05/04 07:12:53;;;;;;;5.60;4.57;;;9.30;92.20;;;;;;5057581;28;20454;-68
2023/05/04 07:15:19;;;;;;;8.60;5.23;;;9.40;70.00;;;;;;5055762;28;20167;-66
2023/05/04 07:17:47;;;;;;;7.50;4.90;;;9.40;30.10;;;;;;5055646;28;20241;-70
2023/05/04 07:20:14;;;;;;;7.33;4.97;;;9.60;1.60;;;;;;5054656;28;20406;-66
2023/05/04 07:22:40;;;;;;;6.80;4.20;;;9.70;1.00;;;;;;5055419;28;20467;-69
2023/05/04 07:25:06;;;;;;;7.50;4.87;;;9.80;1.00;;;;;;5064237;28;20399;-65
2023/05/04 07:27:34;;;;;;;9.07;4.30;;;9.80;1.00;;;;;;5074986;28;20170;-70
2023/05/04 07:30:01;;;;;;;4.50;4.00;;;10.00;1.00;;;;;;5074941;28;20393;-66
2023/05/04 07:32:29;;;;;;;4.03;3.73;;;10.10;1.00;;;;;;5074752;28;20399;-65
2023/05/04 07:34:55;;;;;;;5.73;4.40;;;10.10;1.00;;;;;;5057265;28;20470;-66
2023/05/04 07:37:21;;;;;;;8.60;4.17;;;10.20;1.00;;;;;;5075239;28;20452;-70
2023/05/04 07:39:47;;;;;;;10.70;5.10;;;10.30;1.00;;;;;;5066849;28;20221;-66
2023/05/04 07:42:13;;;;;;;9.73;4.27;;;10.40;1.00;;;;;;5054664;28;20179;-66
2023/05/04 07:44:40;;;;;;;7.27;4.40;;;10.50;1.00;;;;;;5055038;28;20372;-70
2023/05/04 07:47:05;;;;;;;13.77;4.90;;;10.60;1.00;;;;;;5054589;28;20173;-69
2023/05/04 07:49:31;;;;;;;11.43;4.37;;;10.70;1.00;;;;;;5055401;28;20455;-70
2023/05/04 07:51:57;;;;;;;7.03;3.97;;;10.90;1.00;;;;;;5053878;28;20183;-70
2023/05/04 07:54:23;;;;;;;11.40;4.10;;;11.00;1.00;;;;;;5061973;28;20478;-70
2023/05/04 07:56:49;;;;;;;9.37;4.53;;;11.00;1.00;;;;;;5057122;28;20198;-66
2023/05/04 07:59:17;;;;;;;13.17;5.57;;;11.10;1.00;;;;;;5074771;28;20173;-66
2023/05/04 08:01:43;;;;;;;9.93;4.60;;;11.10;1.00;;;;;;5073967;28;20429;-70
2023/05/04 08:04:09;;;;;;;8.20;3.40;;;11.20;1.00;;;;;;5074757;28;20411;-66
2023/05/04 08:06:38;;;;;;;5.90;4.50;;;11.30;1.00;;;;;;5077399;28;20429;-67
2023/05/04 08:09:05;;;;;;;8.87;3.70;;;11.50;1.00;;;;;;5075279;28;20452;-67
2023/05/04 08:11:33;;;;;;;5.43;4.50;;;11.70;1.00;;;;;;5093262;28;20886;-71
2023/05/04 08:13:59;;;;;;;12.37;6.40;;;11.80;1.00;;;;;;5069154;28;20560;-68
2023/05/04 08:17:03;;;;;;;7.90;3.73;;;11.90;1.00;;;;;;5072287;28;20474;-70
2023/05/04 08:19:29;;;;;;;5.07;3.60;;;12.10;1.00;;;;;;5070260;28;20405;-66
2023/05/04 08:21:55;;;;;;;7.20;4.67;;;12.30;1.00;;;;;;5072867;28;20430;-66
2023/05/04 08:24:21;;;;;;;6.57;4.27;;;12.40;1.00;;;;;;5073725;28;20396;-71
2023/05/04 08:26:47;;;;;;;4.30;3.90;;;12.60;1.00;;;;;;5059939;28;20585;-65
2023/05/04 08:29:13;;;;;;;6.77;3.97;;;12.80;1.00;;;;;;5074024;28;20224;-66
2023/05/04 08:31:39;;;;;;;7.03;3.80;;;12.90;1.00;;;;;;5072442;28;20424;-70
2023/05/04 08:34:15;;;;;;;9.60;4.73;;;13.10;1.00;;;;;;5087855;28;20433;-70
2023/05/04 08:36:41;;;;;;;4.63;4.10;;;13.10;1.00;;;;;;5054359;28;20251;-70
2023/05/04 08:39:09;;;;;;;4.70;4.30;;;13.00;1.00;;;;;;5036374;28;20550;-70
2023/05/04 08:41:39;;;;;;;12.73;4.97;;;13.00;1.00;;;;;;5090617;28;20184;-67
2023/05/04 08:44:08;;;;;;;5.90;3.90;;;13.10;1.00;;;;;;5093981;28;20427;-70
2023/05/04 08:46:34;;;;;;;6.30;4.60;;;13.10;1.00;;;;;;5075592;28;20490;-66
2023/05/04 08:49:00;;;;;;;4.80;4.40;;;13.20;1.00;;;;;;5073422;28;20436;-68
2023/05/04 08:51:26;;;;;;;14.20;4.30;;;13.40;1.00;;;;;;5073054;28;20427;-70
2023/05/04 08:53:53;;;;;;;7.60;4.80;;;13.40;1.00;;;;;;5073547;28;20428;-66
2023/05/04 08:56:20;;;;;;;7.47;4.90;;;13.70;1.00;;;;;;5070236;28;20995;-70
2023/05/04 08:58:51;;;;;;;8.93;4.60;;;13.80;1.00;;;;;;5093490;28;20407;-70
2023/05/04 09:01:18;;;;;;;13.40;5.33;;;13.80;1.00;;;;;;5079009;28;20432;-66
2023/05/04 09:03:46;;;;;;;4.57;4.17;;;14.00;1.00;;;;;;5072754;28;20430;-70
2023/05/04 09:06:16;;;;;;;5.27;4.37;;;14.20;1.00;;;;;;5074439;28;20455;-70
2023/05/04 09:08:42;;;;;;;8.33;4.63;;;14.40;1.00;;;;;;5073934;28;20400;-71
2023/05/04 09:11:08;;;;;;;10.63;5.10;;;14.40;1.00;;;;;;5072357;28;20431;-71
2023/05/04 09:13:34;;;;;;;7.43;3.87;;;14.50;1.00;;;;;;5074182;28;20224;-68
2023/05/04 09:16:02;;;;;;;8.00;5.07;;;14.70;1.00;;;;;;5072023;28;20420;-66
2023/05/04 09:18:39;;;;;;;5.30;4.33;;;14.60;1.00;;;;;;5072260;28;20463;-71
2023/05/04 09:21:05;;;;;;;10.87;5.30;;;14.30;1.00;;;;;;5054534;28;20420;-71
2023/05/04 09:23:32;;;;;;;6.90;5.33;;;14.30;1.00;;;;;;5073615;28;20404;-71
2023/05/04 09:25:58;;;;;;;6.57;4.20;;;14.50;1.00;;;;;;5073033;28;20844;-71
2023/05/04 09:28:40;;;;;;;5.63;5.07;;;14.80;1.00;;;;;;5073720;28;20455;-67
2023/05/04 09:31:06;;;;;;;5.23;4.10;;;14.90;1.00;;;;;;5071630;28;20178;-67
2023/05/04 09:33:54;;;;;;;5.83;5.17;;;14.90;1.00;;;;;;5073034;28;20416;-68
2023/05/04 09:36:20;;;;;;;8.40;5.40;;;14.90;1.00;;;;;;5084516;28;20438;-67
2023/05/04 09:38:46;;;;;;;9.23;4.67;;;14.80;1.00;;;;;;5083925;28;20430;-67
2023/05/04 09:41:12;;;;;;;12.87;5.40;;;14.80;1.00;;;;;;5071829;28;20408;-71
2023/05/04 09:43:54;;;;;;;6.00;4.57;;;14.70;1.00;;;;;;5092484;28;20650;-71
2023/05/04 09:46:21;;;;;;;5.30;4.00;;;14.80;1.00;;;;;;5058743;28;20292;-71
2023/05/04 09:52:17;;;;;;;8.77;5.03;;;15.10;1.00;;;;;;4970456;28;21020;-69
2023/05/04 09:58:31;;;;;;;8.67;5.10;;;15.10;1.00;;;;;;4992103;28;20542;-70
2023/05/04 10:01:03;;;;;;;6.20;4.93;;;15.50;1.00;;;;;;4989350;28;20419;-70
2023/05/04 10:03:30;;;;;;;5.83;4.50;;;15.50;1.00;;;;;;5077848;28;20432;-70
2023/05/04 10:06:01;;;;;;;8.97;4.97;;;15.20;1.00;;;;;;5078098;28;20917;-70
2023/05/04 10:08:27;;;;;;;8.00;5.20;;;15.00;1.00;;;;;;5056201;28;20420;-70
2023/05/04 10:10:54;;;;;;;9.10;5.00;;;14.90;1.00;;;;;;5071015;28;20872;-70
2023/05/04 10:13:20;;;;;;;5.80;5.20;;;14.80;1.00;;;;;;5073904;28;20448;-70
2023/05/04 10:16:09;;;;;;;11.40;6.93;;;14.90;1.00;;;;;;5093660;28;20914;-71
2023/05/04 10:18:37;;;;;;;16.47;5.10;;;15.00;1.00;;;;;;5058466;28;20454;-70
2023/05/04 10:21:16;;;;;;;10.07;4.40;;;15.10;1.00;;;;;;5064004;28;20432;-67
2023/05/04 10:24:14;;;;;;;7.43;5.23;;;15.20;1.00;;;;;;5072717;28;20446;-67
2023/05/04 10:27:04;;;;;;;6.70;3.93;;;15.70;1.00;;;;;;5073201;28;20439;-67
2023/05/04 10:29:33;;;;;;;9.60;5.70;;;16.20;1.00;;;;;;5072192;28;20417;-67
2023/05/04 10:32:03;;;;;;;11.03;4.63;;;16.20;1.00;;;;;;5061410;28;20995;-67
2023/05/04 10:34:35;;;;;;;6.50;4.33;;;16.20;1.00;;;;;;5074391;28;20827;-70
2023/05/04 10:37:03;;;;;;;7.03;4.90;;;16.30;1.00;;;;;;5066051;28;20448;-71
2023/05/04 10:39:32;;;;;;;6.97;4.70;;;16.40;1.00;;;;;;5071851;28;20492;-70
2023/05/04 10:42:03;;;;;;;6.00;4.00;;;16.60;1.00;;;;;;5072018;28;20412;-68
2023/05/04 10:44:51;;;;;;;5.77;4.30;;;17.00;1.00;;;;;;5072974;28;20577;-67
2023/05/04 10:48:18;;;;;;;;;;;;;;;;;;;;;
2023/05/04 10:50:45;;;;;;;8.30;4.77;;;17.60;1.00;;;;;;5036208;28;20440;-71
2023/05/04 10:53:12;;;;;;;6.57;4.83;;;17.70;1.00;;;;;;5076424;28;20424;-67
2023/05/04 10:55:57;;;;;;;9.13;4.70;;;17.80;1.00;;;;;;5075410;28;20409;-69
2023/05/04 10:58:39;;;;;;;11.53;5.50;;;17.70;1.00;;;;;;5055801;28;20464;-70
2023/05/04 11:01:31;;;;;;;9.50;5.90;;;17.10;99.90;;;;;;5058267;28;20408;-70
2023/05/04 11:03:57;;;;;;;6.67;5.70;;;16.70;99.90;;;;;;5094892;28;20440;-68
2023/05/04 11:06:24;;;;;;;5.37;4.87;;;16.60;99.90;;;;;;5090994;28;20507;-67
2023/05/04 11:09:21;;;;;;;6.70;5.40;;;16.90;99.90;;;;;;5058117;28;20504;-71
2023/05/04 11:11:47;;;;;;;7.63;5.17;;;16.90;99.90;;;;;;5056709;28;20515;-67
2023/05/04 11:14:26;;;;;;;9.03;5.53;;;17.00;99.90;;;;;;5058493;28;20436;-67
2023/05/04 11:17:04;;;;;;;7.73;4.80;;;17.00;1.00;;;;;;5082634;28;20451;-68
2023/05/04 11:19:30;;;;;;;8.50;4.00;;;17.30;1.00;;;;;;5095888;28;20407;-68
2023/05/04 11:22:01;;;;;;;8.47;4.53;;;17.80;1.00;;;;;;5086891;28;20412;-68
2023/05/04 11:24:43;;;;;;;7.83;4.50;;;18.20;1.00;;;;;;5074510;28;20432;-71
2023/05/04 11:27:21;;;;;;;11.63;4.23;;;18.30;1.00;;;;;;5075511;28;20424;-71
2023/05/04 11:29:57;;;;;;;4.07;3.53;;;18.40;1.00;;;;;;5075670;28;20408;-71
2023/05/04 11:32:36;;;;;;;10.30;4.20;;;18.50;1.00;;;;;;5083905;28;20427;-70
2023/05/04 11:35:03;;;;;;;7.00;4.00;;;18.50;1.00;;;;;;5095116;28;20407;-69
2023/05/04 11:37:29;;;;;;;5.47;4.17;;;18.80;1.00;;;;;;5075106;28;20458;-71
2023/05/04 11:39:56;;;;;;;5.57;3.33;;;18.80;99.90;;;;;;5074132;28;20475;-71
2023/05/04 11:42:23;;;;;;;5.50;3.57;;;18.30;99.90;;;;;;5091449;28;20518;-71
2023/05/04 11:44:53;;;;;;;10.70;3.53;;;18.20;1.00;;;;;;5095239;28;20753;-67
2023/05/04 11:47:19;;;;;;;7.30;4.13;;;18.50;1.00;;;;;;5059886;28;20485;-68
2023/05/04 11:49:46;;;;;;;5.53;3.90;;;18.50;1.00;;;;;;5075123;28;20908;-68
2023/05/04 11:52:12;;;;;;;6.27;3.67;;;18.60;1.00;;;;;;5063641;28;20491;-71
2023/05/04 11:55:17;;;;;;;5.30;4.57;;;18.20;99.90;;;;;;5057214;28;20411;-70
2023/05/04 11:57:42;;;;;;;6.57;4.27;;;17.40;99.90;;;;;;5023606;28;20467;-67
2023/05/04 12:02:55;;;;;;;9.20;4.63;;;17.40;1.00;;;;;;5094802;28;20242;-72
2023/05/04 12:05:21;;;;;;;12.90;3.83;;;17.60;1.00;;;;;;5092172;28;20504;-68
2023/05/04 12:07:47;;;;;;;9.50;4.77;;;17.40;99.90;;;;;;5074664;28;20491;-68
2023/05/04 12:10:32;;;;;;;9.00;5.40;;;17.20;99.90;;;;;;5084562;28;20571;-72
2023/05/04 12:13:01;;;;;;;7.10;4.70;;;17.30;99.90;;;;;;5074573;28;20501;-68
2023/05/04 12:15:32;;;;;;;7.03;4.70;;;17.30;99.90;;;;;;5074372;28;20482;-72
2023/05/04 12:18:01;;;;;;;7.53;4.70;;;17.10;99.90;;;;;;5074334;28;20448;-72
2023/05/04 12:23:22;;;;;;;8.67;4.07;;;17.20;99.90;;;;;;5076090;28;20454;-67
2023/05/04 12:25:50;;;;;;;5.80;4.50;;;17.20;99.90;;;;;;5095385;28;20545;-71
2023/05/04 12:28:18;;;;;;;6.57;4.67;;;16.90;99.90;;;;;;5076544;28;20180;-67
2023/05/04 12:30:44;;;;;;;4.77;4.27;;;16.80;99.90;;;;;;5093743;28;20421;-71
2023/05/04 12:33:10;;;;;;;7.77;4.37;;;16.80;99.90;;;;;;5094371;28;20423;-67
2023/05/04 12:35:36;;;;;;;7.37;4.93;;;16.50;99.90;;;;;;5075926;28;20423;-70
2023/05/04 12:38:01;;;;;;;7.23;4.10;;;15.90;99.90;;;;;;5073008;28;20469;-71
2023/05/04 12:40:28;;;;;;;6.83;4.87;;;15.70;99.90;;;;;;5072179;28;20184;-67
2023/05/04 12:42:54;;;;;;;6.97;4.50;;;15.90;99.90;;;;;;5073942;28;20193;-72
2023/05/04 12:45:23;;;;;;;10.07;6.13;;;16.20;99.90;;;;;;5088155;28;20411;-73
2023/05/04 12:47:49;;;;;;;13.27;5.27;;;16.50;99.90;;;;;;5085266;28;20439;-72
2023/05/04 12:53:21;;;;;;;4.60;4.20;;;16.50;99.90;;;;;;5077250;28;20834;-68
2023/05/04 12:56:02;;;;;;;8.50;4.43;;;16.30;99.90;;;;;;5073623;28;20970;-71
2023/05/04 12:58:42;;;;;;;11.23;5.23;;;16.30;99.90;;;;;;5058785;28;20483;-68
2023/05/04 13:01:08;;;;;;;9.40;5.30;;;16.10;99.90;;;;;;5056954;28;20427;-70
2023/05/04 13:03:33;;;;;;;6.23;4.50;;;15.80;99.90;;;;;;5075644;28;20511;-68
2023/05/04 13:06:23;;;;;;;7.57;4.90;;;15.80;99.90;;;;;;5072792;28;20805;-70
2023/05/04 13:09:07;;;;;;;8.80;4.27;;;15.80;99.90;;;;;;5057374;28;20178;-68
2023/05/04 13:11:33;;;;;;;13.73;4.70;;;15.80;99.90;;;;;;5071980;28;20765;-70
2023/05/04 13:13:59;;;;;;;9.23;4.80;;;15.60;99.90;;;;;;5072700;28;20452;-68
2023/05/04 13:16:26;;;;;;;8.20;4.60;;;15.60;99.90;;;;;;5073074;28;20440;-70
2023/05/04 13:18:54;;;;;;;6.60;5.00;;;15.30;99.90;;;;;;5072008;28;20456;-68